createdAt,value
2023-08-10T00:00:02.902Z,89.55
2023-08-10T00:01:02.917Z,89.45
2023-08-10T00:02:03.601Z,89.86
2023-08-10T00:03:02.953Z,89.86
2023-08-10T00:04:02.849Z,89.86
2023-08-10T00:05:02.837Z,89.55
2023-08-10T00:06:02.862Z,89.81
2023-08-10T00:07:02.818Z,90.06
2023-08-10T00:08:02.811Z,89.76
2023-08-10T00:09:02.792Z,89.86
2023-08-10T00:10:02.777Z,89.96
2023-08-10T00:11:02.834Z,89.65
2023-08-10T00:12:03.125Z,89.61
2023-08-10T00:13:02.742Z,90.12
2023-08-10T00:14:02.729Z,90.12
2023-08-10T00:15:02.725Z,90.16
2023-08-10T00:16:02.714Z,90.42
2023-08-10T00:17:02.733Z,90.53
2023-08-10T00:18:02.754Z,90.16
2023-08-10T00:19:02.680Z,90.06
2023-08-10T00:20:02.670Z,89.96
2023-08-10T00:21:02.685Z,90.26
2023-08-10T00:22:02.925Z,90.77
2023-08-10T00:23:03.325Z,90.26
2023-08-10T00:24:02.624Z,90.67
2023-08-10T00:25:02.605Z,90.67
2023-08-10T00:26:02.607Z,90.57
2023-08-10T00:27:02.610Z,91.28
2023-08-10T00:28:02.572Z,90.77
2023-08-10T00:29:02.563Z,91.08
2023-08-10T00:30:02.556Z,91.38
2023-08-10T00:31:02.575Z,90.67
2023-08-10T00:32:02.816Z,91.08
2023-08-10T00:33:02.555Z,91.08
2023-08-10T00:34:02.504Z,90.97
2023-08-10T00:35:02.497Z,91.48
2023-08-10T00:36:02.481Z,90.88
2023-08-10T00:37:02.474Z,90.47
2023-08-10T00:38:02.492Z,90.67
2023-08-10T00:39:02.446Z,90.57
2023-08-10T00:40:02.445Z,90.47
2023-08-10T00:41:02.431Z,90.67
2023-08-10T00:42:02.414Z,90.57
2023-08-10T00:43:02.434Z,91.38
2023-08-10T00:44:02.400Z,91.17
2023-08-10T00:45:02.380Z,90.77
2023-08-10T00:46:02.458Z,90.77
2023-08-10T00:47:02.364Z,91.08
2023-08-10T00:48:02.414Z,91.08
2023-08-10T00:49:02.358Z,91.28
2023-08-10T00:50:02.338Z,91.28
2023-08-10T00:51:02.328Z,91.38
2023-08-10T00:52:02.652Z,91.28
2023-08-10T00:53:02.292Z,91.38
2023-08-10T00:54:02.281Z,90.77
2023-08-10T00:55:02.269Z,90.97
2023-08-10T00:56:02.279Z,91.08
2023-08-10T00:57:02.262Z,91.17
2023-08-10T00:58:02.252Z,91.17
2023-08-10T00:59:02.247Z,91.08
2023-08-10T01:00:02.208Z,90.88
2023-08-10T01:01:02.208Z,91.08
2023-08-10T01:02:02.298Z,91.08
2023-08-10T01:03:02.324Z,90.81
2023-08-10T01:04:02.195Z,90.67
2023-08-10T01:05:02.211Z,90.41
2023-08-10T01:06:02.150Z,90.61
2023-08-10T01:07:02.134Z,91.42
2023-08-10T01:08:02.130Z,91.17
2023-08-10T01:09:02.116Z,90.81
2023-08-10T01:10:02.118Z,91.32
2023-08-10T01:11:02.101Z,91.22
2023-08-10T01:12:02.263Z,91.08
2023-08-10T01:13:02.065Z,90.67
2023-08-10T01:14:02.079Z,90.51
2023-08-10T01:15:02.069Z,90.77
2023-08-10T01:16:02.133Z,90.57
2023-08-10T01:17:02.033Z,90.77
2023-08-10T01:18:02.016Z,91.08
2023-08-10T01:19:01.998Z,91.08
2023-08-10T01:20:01.989Z,90.97
2023-08-10T01:21:01.997Z,90.97
2023-08-10T01:22:02.233Z,90.97
2023-08-10T01:23:01.962Z,90.97
2023-08-10T01:24:01.939Z,90.97
2023-08-10T01:25:01.931Z,90.97
2023-08-10T01:26:01.947Z,90.77
2023-08-10T01:27:01.921Z,90.77
2023-08-10T01:28:01.905Z,90.71
2023-08-10T01:29:01.901Z,90.88
2023-08-10T01:30:01.897Z,90.57
2023-08-10T01:31:01.932Z,90.61
2023-08-10T01:32:01.970Z,91.28
2023-08-10T01:33:01.872Z,91.12
2023-08-10T01:34:01.838Z,91.42
2023-08-10T01:35:01.842Z,91.42
2023-08-10T01:36:01.803Z,91.02
2023-08-10T01:37:01.804Z,91.22
2023-08-10T01:38:01.788Z,90.81
2023-08-10T01:39:01.786Z,90.81
2023-08-10T01:40:01.771Z,91.38
2023-08-10T01:41:01.807Z,91.02
2023-08-10T01:42:01.918Z,91.28
2023-08-10T01:43:01.728Z,91.48
2023-08-10T01:44:01.720Z,91.78
2023-08-10T01:45:01.708Z,91.42
2023-08-10T01:46:01.717Z,91.02
2023-08-10T01:47:01.710Z,91.42
2023-08-10T01:48:01.777Z,91.42
2023-08-10T01:49:01.663Z,90.81
2023-08-10T01:50:01.668Z,91.02
2023-08-10T01:51:01.666Z,91.42
2023-08-10T01:52:01.714Z,90.92
2023-08-10T01:53:01.638Z,91.22
2023-08-10T01:54:01.608Z,91.22
2023-08-10T01:55:01.636Z,91.02
2023-08-10T01:56:01.591Z,91.12
2023-08-10T01:57:01.613Z,91.32
2023-08-10T01:58:01.580Z,92.03
2023-08-10T01:59:01.549Z,91.52
2023-08-10T02:00:01.561Z,91.83
2023-08-10T02:01:01.575Z,91.63
2023-08-10T02:02:01.640Z,91.63
2023-08-10T02:03:01.649Z,90.81
2023-08-10T02:04:01.573Z,91.42
2023-08-10T02:05:01.491Z,91.32
2023-08-10T02:06:01.486Z,91.83
2023-08-10T02:07:01.459Z,91.73
2023-08-10T02:08:01.449Z,91.52
2023-08-10T02:09:01.448Z,91.83
2023-08-10T02:10:01.439Z,91.83
2023-08-10T02:11:01.421Z,91.73
2023-08-10T02:12:01.407Z,91.52
2023-08-10T02:13:01.410Z,92.13
2023-08-10T02:14:01.388Z,91.02
2023-08-10T02:15:01.370Z,91.22
2023-08-10T02:16:01.434Z,90.81
2023-08-10T02:17:01.343Z,91.32
2023-08-10T02:18:01.360Z,91.52
2023-08-10T02:19:01.467Z,91.42
2023-08-10T02:20:01.312Z,91.83
2023-08-10T02:21:01.314Z,91.83
2023-08-10T02:22:01.287Z,91.87
2023-08-10T02:23:01.304Z,91.83
2023-08-10T02:24:01.266Z,91.63
2023-08-10T02:25:01.280Z,91.83
2023-08-10T02:26:01.241Z,91.83
2023-08-10T02:27:01.248Z,91.73
2023-08-10T02:28:01.221Z,91.83
2023-08-10T02:29:01.208Z,91.83
2023-08-10T02:30:01.200Z,91.83
2023-08-10T02:31:01.232Z,91.73
2023-08-10T02:32:01.178Z,91.93
2023-08-10T02:33:01.234Z,91.93
2023-08-10T02:34:01.160Z,91.93
2023-08-10T02:35:01.165Z,91.93
2023-08-10T02:36:01.143Z,91.77
2023-08-10T02:37:01.125Z,92.18
2023-08-10T02:38:01.109Z,92.13
2023-08-10T02:39:01.104Z,91.97
2023-08-10T02:40:01.089Z,92.79
2023-08-10T02:41:01.096Z,92.79
2023-08-10T02:42:01.062Z,92.13
2023-08-10T02:43:01.048Z,91.97
2023-08-10T02:44:01.045Z,92.18
2023-08-10T02:45:01.036Z,92.07
2023-08-10T02:46:01.098Z,91.97
2023-08-10T02:47:01.009Z,92.28
2023-08-10T02:48:01.015Z,91.56
2023-08-10T02:49:00.984Z,91.87
2023-08-10T02:50:00.988Z,92.07
2023-08-10T02:51:01.071Z,91.93
2023-08-10T02:52:00.985Z,91.87
2023-08-10T02:53:00.974Z,92.84
2023-08-10T02:54:00.937Z,92.54
2023-08-10T02:55:00.943Z,93.05
2023-08-10T02:56:00.913Z,92.94
2023-08-10T02:57:00.902Z,92.84
2023-08-10T02:58:00.891Z,91.83
2023-08-10T02:59:00.864Z,91.73
2023-08-10T03:00:00.855Z,91.83
2023-08-10T03:01:00.886Z,91.83
2023-08-10T03:02:00.866Z,91.83
2023-08-10T03:03:00.896Z,92.03
2023-08-10T03:04:00.947Z,92.03
2023-08-10T03:05:00.818Z,91.83
2023-08-10T03:06:00.802Z,91.87
2023-08-10T03:07:00.796Z,92.07
2023-08-10T03:08:00.781Z,91.87
2023-08-10T03:09:00.787Z,92.18
2023-08-10T03:10:00.743Z,91.87
2023-08-10T03:11:00.730Z,92.28
2023-08-10T03:12:00.733Z,92.79
2023-08-10T03:13:00.732Z,92.48
2023-08-10T03:14:00.697Z,92.18
2023-08-10T03:15:00.687Z,92.07
2023-08-10T03:16:00.790Z,92.18
2023-08-10T03:17:00.765Z,92.89
2023-08-10T03:18:00.762Z,92.79
2023-08-10T03:19:00.664Z,93.09
2023-08-10T03:20:00.668Z,92.89
2023-08-10T03:21:00.649Z,92.79
2023-08-10T03:22:00.707Z,92.54
2023-08-10T03:23:00.714Z,92.48
2023-08-10T03:24:00.608Z,92.79
2023-08-10T03:25:00.586Z,92.89
2023-08-10T03:26:00.568Z,92.99
2023-08-10T03:27:00.560Z,92.68
2023-08-10T03:28:00.538Z,92.79
2023-08-10T03:29:00.570Z,92.48
2023-08-10T03:30:00.520Z,92.89
2023-08-10T03:31:00.530Z,92.89
2023-08-10T03:32:00.534Z,92.79
2023-08-10T03:33:00.511Z,92.79
2023-08-10T03:34:00.490Z,92.48
2023-08-10T03:35:00.462Z,92.48
2023-08-10T03:36:00.454Z,92.48
2023-08-10T03:37:00.455Z,92.58
2023-08-10T03:38:00.460Z,92.58
2023-08-10T03:39:00.448Z,92.68
2023-08-10T03:40:00.440Z,93.19
2023-08-10T03:41:00.388Z,93.33
2023-08-10T03:42:00.430Z,92.99
2023-08-10T03:43:00.381Z,93.49
2023-08-10T03:44:00.386Z,93.40
2023-08-10T03:45:00.355Z,93.49
2023-08-10T03:46:00.385Z,93.29
2023-08-10T03:47:00.328Z,93.49
2023-08-10T03:48:00.385Z,93.40
2023-08-10T03:49:00.302Z,93.29
2023-08-10T03:50:00.325Z,93.19
2023-08-10T03:51:00.292Z,93.40
2023-08-10T03:52:00.320Z,93.40
2023-08-10T03:53:00.256Z,93.40
2023-08-10T03:54:00.248Z,93.80
2023-08-10T03:55:00.276Z,93.29
2023-08-10T03:56:00.231Z,94.41
2023-08-10T03:57:00.211Z,93.60
2023-08-10T03:58:00.209Z,93.80
2023-08-10T03:59:00.184Z,94.00
2023-08-10T04:00:00.282Z,93.90
2023-08-10T04:01:00.219Z,94.41
2023-08-10T04:02:00.169Z,94.21
2023-08-10T04:03:00.219Z,93.44
2023-08-10T04:04:01.223Z,93.29
2023-08-10T04:05:00.140Z,93.29
2023-08-10T04:06:00.114Z,93.60
2023-08-10T04:07:00.109Z,93.70
2023-08-10T04:08:00.120Z,93.60
2023-08-10T04:09:00.110Z,94.21
2023-08-10T04:10:00.074Z,93.49
2023-08-10T04:11:00.069Z,93.90
2023-08-10T04:12:00.054Z,93.49
2023-08-10T04:13:00.026Z,93.49
2023-08-10T04:14:00.022Z,93.80
2023-08-10T04:15:00.022Z,93.60
2023-08-10T04:16:00.005Z,93.60
2023-08-10T04:17:00.044Z,93.70
2023-08-10T04:18:00.028Z,94.21
2023-08-10T04:18:59.959Z,94.41
2023-08-10T04:19:59.952Z,94.61
2023-08-10T04:20:59.937Z,94.31
2023-08-10T04:21:59.950Z,94.92
2023-08-10T04:22:59.928Z,94.41
2023-08-10T04:23:59.900Z,94.41
2023-08-10T04:24:59.888Z,93.80
2023-08-10T04:25:59.877Z,93.80
2023-08-10T04:26:59.911Z,94.82
2023-08-10T04:27:59.890Z,93.80
2023-08-10T04:28:59.842Z,94.71
2023-08-10T04:29:59.835Z,94.21
2023-08-10T04:30:59.843Z,94.61
2023-08-10T04:31:59.817Z,94.31
2023-08-10T04:32:59.830Z,94.82
2023-08-10T04:33:59.805Z,94.82
2023-08-10T04:34:59.777Z,94.21
2023-08-10T04:35:59.764Z,94.41
2023-08-10T04:36:59.751Z,94.86
2023-08-10T04:37:59.748Z,94.76
2023-08-10T04:38:59.729Z,94.35
2023-08-10T04:39:59.728Z,94.31
2023-08-10T04:40:59.703Z,94.61
2023-08-10T04:41:59.697Z,94.51
2023-08-10T04:42:59.719Z,95.02
2023-08-10T04:43:59.678Z,94.86
2023-08-10T04:44:59.659Z,94.82
2023-08-10T04:45:59.680Z,94.82
2023-08-10T04:46:59.637Z,94.92
2023-08-10T04:47:59.696Z,94.82
2023-08-10T04:48:59.628Z,94.61
2023-08-10T04:49:59.619Z,95.12
2023-08-10T04:50:59.600Z,94.92
2023-08-10T04:51:59.581Z,95.07
2023-08-10T04:52:59.611Z,94.67
2023-08-10T04:53:59.573Z,94.77
2023-08-10T04:54:59.543Z,94.87
2023-08-10T04:55:59.545Z,94.77
2023-08-10T04:56:59.521Z,94.57
2023-08-10T04:57:59.516Z,94.26
2023-08-10T04:58:59.541Z,94.26
2023-08-10T04:59:59.516Z,94.57
2023-08-10T05:00:59.502Z,93.76
2023-08-10T05:01:59.618Z,93.55
2023-08-10T05:02:59.676Z,93.45
2023-08-10T05:03:59.505Z,93.76
2023-08-10T05:04:59.454Z,93.55
2023-08-10T05:05:59.427Z,93.45
2023-08-10T05:06:59.424Z,93.55
2023-08-10T05:07:59.399Z,94.57
2023-08-10T05:08:59.392Z,93.96
2023-08-10T05:09:59.377Z,93.96
2023-08-10T05:10:59.392Z,93.35
2023-08-10T05:11:59.360Z,94.37
2023-08-10T05:12:59.346Z,94.06
2023-08-10T05:13:59.333Z,93.15
2023-08-10T05:14:59.345Z,93.25
2023-08-10T05:15:59.329Z,93.45
2023-08-10T05:16:59.329Z,93.45
2023-08-10T05:17:59.312Z,93.45
2023-08-10T05:18:59.281Z,93.65
2023-08-10T05:19:59.266Z,93.45
2023-08-10T05:20:59.251Z,93.65
2023-08-10T05:21:59.254Z,94.17
2023-08-10T05:22:59.251Z,94.06
2023-08-10T05:23:59.221Z,93.71
2023-08-10T05:24:59.210Z,93.71
2023-08-10T05:25:59.202Z,93.51
2023-08-10T05:26:59.214Z,93.30
2023-08-10T05:27:59.196Z,93.71
2023-08-10T05:28:59.180Z,93.91
2023-08-10T05:29:59.154Z,93.21
2023-08-10T05:30:59.164Z,94.02
2023-08-10T05:31:59.196Z,94.02
2023-08-10T05:32:59.166Z,93.26
2023-08-10T05:33:59.124Z,94.02
2023-08-10T05:34:59.091Z,93.26
2023-08-10T05:35:59.084Z,93.16
2023-08-10T05:36:59.107Z,92.86
2023-08-10T05:37:59.058Z,93.06
2023-08-10T05:38:59.055Z,92.86
2023-08-10T05:39:59.049Z,93.10
2023-08-10T05:40:59.028Z,93.41
2023-08-10T05:41:59.021Z,93.26
2023-08-10T05:42:59.030Z,93.46
2023-08-10T05:43:58.998Z,93.41
2023-08-10T05:44:58.987Z,93.51
2023-08-10T05:45:59.033Z,93.41
2023-08-10T05:46:58.984Z,93.37
2023-08-10T05:47:58.970Z,93.41
2023-08-10T05:48:58.972Z,93.16
2023-08-10T05:49:58.929Z,93.21
2023-08-10T05:50:58.963Z,93.30
2023-08-10T05:51:58.942Z,93.37
2023-08-10T05:52:58.895Z,93.30
2023-08-10T05:53:58.883Z,93.41
2023-08-10T05:54:58.895Z,93.30
2023-08-10T05:55:58.856Z,93.51
2023-08-10T05:57:00.539Z,93.37
2023-08-10T05:57:58.894Z,93.30
2023-08-10T05:58:58.833Z,93.41
2023-08-10T05:59:58.812Z,93.30
2023-08-10T06:00:58.899Z,93.57
2023-08-10T06:01:58.797Z,93.37
2023-08-10T06:02:58.849Z,93.26
2023-08-10T06:03:58.782Z,93.37
2023-08-10T06:04:58.793Z,92.65
2023-08-10T06:05:58.753Z,93.37
2023-08-10T06:06:58.743Z,93.42
2023-08-10T06:07:58.736Z,93.12
2023-08-10T06:08:58.709Z,92.71
2023-08-10T06:09:58.700Z,93.12
2023-08-10T06:10:58.692Z,92.82
2023-08-10T06:11:58.699Z,92.82
2023-08-10T06:12:58.740Z,92.57
2023-08-10T06:13:58.657Z,92.57
2023-08-10T06:14:58.641Z,91.75
2023-08-10T06:15:58.661Z,91.46
2023-08-10T06:16:58.632Z,91.55
2023-08-10T06:17:58.707Z,91.66
2023-08-10T06:18:58.648Z,91.51
2023-08-10T06:19:59.424Z,91.31
2023-08-10T06:20:58.582Z,91.82
2023-08-10T06:21:58.567Z,91.61
2023-08-10T06:22:58.565Z,90.80
2023-08-10T06:23:58.566Z,90.60
2023-08-10T06:24:58.533Z,90.45
2023-08-10T06:25:58.532Z,91.00
2023-08-10T06:26:58.510Z,90.86
2023-08-10T06:27:58.509Z,91.16
2023-08-10T06:28:58.485Z,90.40
2023-08-10T06:29:58.492Z,90.20
2023-08-10T06:30:58.489Z,90.60
2023-08-10T06:31:58.449Z,90.70
2023-08-10T06:32:58.524Z,90.25
2023-08-10T06:33:58.440Z,90.56
2023-08-10T06:34:58.454Z,90.36
2023-08-10T06:35:58.407Z,89.40
2023-08-10T06:36:58.392Z,89.50
2023-08-10T06:37:58.437Z,89.40
2023-08-10T06:38:58.373Z,89.46
2023-08-10T06:39:58.367Z,89.76
2023-08-10T06:40:58.391Z,88.35
2023-08-10T06:41:58.340Z,88.81
2023-08-10T06:42:58.352Z,88.71
2023-08-10T06:43:58.324Z,88.15
2023-08-10T06:44:58.304Z,88.65
2023-08-10T06:45:58.324Z,87.90
2023-08-10T06:46:58.315Z,88.21
2023-08-10T06:47:58.305Z,88.10
2023-08-10T06:48:58.301Z,88.41
2023-08-10T06:49:58.254Z,88.21
2023-08-10T06:50:58.277Z,87.81
2023-08-10T06:51:58.227Z,87.60
2023-08-10T06:52:58.217Z,88.01
2023-08-10T06:53:58.229Z,87.21
2023-08-10T06:54:58.200Z,86.57
2023-08-10T06:55:59.141Z,85.31
2023-08-10T06:56:58.187Z,85.08
2023-08-10T06:57:58.172Z,83.56
2023-08-10T07:00:58.222Z,82.56
2023-08-10T07:01:58.169Z,82.70
2023-08-10T07:02:58.107Z,83.34
2023-08-10T07:03:58.117Z,83.44
2023-08-10T07:04:58.104Z,83.54
2023-08-10T07:05:58.080Z,83.74
2023-08-10T07:06:58.073Z,83.54
2023-08-10T07:07:58.040Z,84.39
2023-08-10T07:08:58.048Z,84.49
2023-08-10T07:09:58.035Z,85.25
2023-08-10T07:10:58.009Z,84.25
2023-08-10T07:11:58.007Z,84.65
2023-08-10T07:12:57.985Z,84.35
2023-08-10T07:13:57.985Z,83.64
2023-08-10T07:14:57.976Z,82.98
2023-08-10T07:15:57.971Z,83.04
2023-08-10T07:16:57.995Z,83.44
2023-08-10T07:17:57.959Z,83.34
2023-08-10T07:18:57.923Z,83.70
2023-08-10T07:19:57.914Z,83.36
2023-08-10T07:20:57.928Z,83.02
2023-08-10T07:21:57.883Z,82.88
2023-08-10T07:22:57.920Z,81.17
2023-08-10T07:23:57.859Z,80.26
2023-08-10T07:24:57.862Z,80.63
2023-08-10T07:25:57.872Z,79.32
2023-08-10T07:26:57.827Z,78.41
2023-08-10T07:27:57.833Z,77.91
2023-08-10T07:28:57.804Z,77.87
2023-08-10T07:29:57.792Z,77.27
2023-08-10T07:30:57.850Z,76.76
2023-08-10T07:31:57.772Z,76.97
2023-08-10T07:32:57.806Z,76.87
2023-08-10T07:33:57.767Z,75.86
2023-08-10T07:34:57.734Z,75.92
2023-08-10T07:35:57.759Z,75.52
2023-08-10T07:36:57.748Z,75.82
2023-08-10T07:37:57.707Z,75.12
2023-08-10T07:38:57.737Z,74.72
2023-08-10T07:39:57.684Z,75.92
2023-08-10T07:40:57.699Z,76.12
2023-08-10T07:41:57.665Z,74.82
2023-08-10T07:42:57.654Z,74.62
2023-08-10T07:43:57.640Z,74.52
2023-08-10T07:44:57.633Z,74.48
2023-08-10T07:45:57.647Z,74.52
2023-08-10T07:46:57.645Z,73.44
2023-08-10T07:47:57.676Z,74.85
2023-08-10T07:48:57.597Z,74.99
2023-08-10T07:49:57.563Z,74.89
2023-08-10T07:50:57.575Z,76.90
2023-08-10T07:51:57.550Z,76.84
2023-08-10T07:52:57.547Z,76.80
2023-08-10T07:53:57.521Z,77.61
2023-08-10T07:54:57.557Z,78.51
2023-08-10T07:55:57.506Z,77.77
2023-08-10T07:56:57.497Z,77.87
2023-08-10T07:57:57.480Z,76.67
2023-08-10T07:58:57.470Z,75.56
2023-08-10T07:59:57.460Z,77.27
2023-08-10T08:00:57.465Z,75.76
2023-08-10T08:01:57.460Z,74.92
2023-08-10T08:02:57.555Z,74.62
2023-08-10T08:03:57.527Z,74.21
2023-08-10T08:04:57.451Z,74.52
2023-08-10T08:05:57.422Z,75.42
2023-08-10T08:06:57.389Z,74.28
2023-08-10T08:07:57.394Z,76.09
2023-08-10T08:08:57.359Z,74.55
2023-08-10T08:09:57.347Z,74.65
2023-08-10T08:10:57.353Z,73.14
2023-08-10T08:11:57.360Z,72.24
2023-08-10T08:12:57.312Z,73.00
2023-08-10T08:13:57.316Z,72.33
2023-08-10T08:14:57.304Z,72.67
2023-08-10T08:15:57.311Z,73.18
2023-08-10T08:16:57.264Z,73.38
2023-08-10T08:17:57.305Z,72.27
2023-08-10T08:18:57.238Z,72.10
2023-08-10T08:19:57.574Z,72.41
2023-08-10T08:20:57.264Z,72.91
2023-08-10T08:21:57.208Z,73.18
2023-08-10T08:22:57.219Z,73.88
2023-08-10T08:23:57.209Z,72.57
2023-08-10T08:24:57.183Z,74.55
2023-08-10T08:25:57.177Z,73.30
2023-08-10T08:26:57.171Z,71.60
2023-08-10T08:27:57.137Z,72.20
2023-08-10T08:28:57.193Z,74.31
2023-08-10T08:29:57.121Z,71.86
2023-08-10T08:30:57.114Z,73.94
2023-08-10T08:31:57.568Z,73.94
2023-08-10T08:32:57.189Z,71.43
2023-08-10T08:33:57.082Z,70.63
2023-08-10T08:34:57.103Z,70.19
2023-08-10T08:35:57.047Z,70.39
2023-08-10T08:36:57.045Z,71.30
2023-08-10T08:37:57.033Z,69.96
2023-08-10T08:38:57.033Z,69.66
2023-08-10T08:39:57.008Z,69.56
2023-08-10T08:40:57.015Z,69.29
2023-08-10T08:41:56.995Z,69.79
2023-08-10T08:42:57.011Z,68.39
2023-08-10T08:43:56.977Z,71.30
2023-08-10T08:44:56.952Z,70.36
2023-08-10T08:45:57.008Z,67.45
2023-08-10T08:46:56.955Z,68.69
2023-08-10T08:47:56.933Z,69.89
2023-08-10T08:48:56.913Z,70.50
2023-08-10T08:49:56.909Z,71.20
2023-08-10T08:50:56.877Z,71.30
2023-08-10T08:51:56.875Z,70.23
2023-08-10T08:52:56.862Z,70.63
2023-08-10T08:53:56.850Z,70.53
2023-08-10T08:54:56.841Z,71.13
2023-08-10T08:55:56.831Z,71.43
2023-08-10T08:56:56.825Z,71.83
2023-08-10T08:57:56.807Z,72.20
2023-08-10T08:58:56.828Z,72.20
2023-08-10T08:59:56.787Z,69.89
2023-08-10T09:00:56.795Z,71.09
2023-08-10T09:02:01.949Z,69.82
2023-08-10T09:02:57.849Z,70.89
2023-08-10T09:03:56.875Z,70.69
2023-08-10T09:04:56.755Z,68.76
2023-08-10T09:05:56.730Z,69.39
2023-08-10T09:06:56.701Z,68.49
2023-08-10T09:07:56.764Z,68.59
2023-08-10T09:08:56.681Z,70.19
2023-08-10T09:09:56.664Z,70.79
2023-08-10T09:10:56.663Z,70.19
2023-08-10T09:11:56.664Z,71.53
2023-08-10T09:12:56.634Z,72.60
2023-08-10T09:13:56.652Z,72.50
2023-08-10T09:14:56.657Z,70.39
2023-08-10T09:15:56.644Z,70.43
2023-08-10T09:16:56.586Z,68.62
2023-08-10T09:17:56.600Z,69.56
2023-08-10T09:18:56.567Z,68.05
2023-08-10T09:19:56.573Z,67.95
2023-08-10T09:20:56.563Z,68.49
2023-08-10T09:21:56.545Z,69.59
2023-08-10T09:22:56.559Z,69.89
2023-08-10T09:23:56.516Z,71.60
2023-08-10T09:24:56.497Z,71.50
2023-08-10T09:25:56.486Z,72.50
2023-08-10T09:26:56.486Z,71.09
2023-08-10T09:27:56.462Z,70.29
2023-08-10T09:28:56.463Z,68.38
2023-08-10T09:29:56.457Z,67.91
2023-08-10T09:30:56.450Z,68.12
2023-08-10T09:31:56.454Z,68.32
2023-08-10T09:32:56.418Z,68.18
2023-08-10T09:33:56.397Z,68.88
2023-08-10T09:34:56.388Z,68.49
2023-08-10T09:35:56.388Z,69.32
2023-08-10T09:36:56.367Z,70.59
2023-08-10T09:37:56.348Z,73.21
2023-08-10T09:39:00.219Z,74.81
2023-08-10T09:39:57.334Z,73.87
2023-08-10T09:40:56.329Z,71.30
2023-08-10T09:41:56.354Z,72.06
2023-08-10T09:42:56.294Z,73.17
2023-08-10T09:43:56.299Z,72.43
2023-08-10T09:44:56.309Z,72.06
2023-08-10T09:45:56.280Z,74.44
2023-08-10T09:46:56.287Z,70.76
2023-08-10T09:47:56.324Z,70.26
2023-08-10T09:48:56.228Z,69.46
2023-08-10T09:49:56.239Z,70.86
2023-08-10T09:50:56.215Z,71.86
2023-08-10T09:51:56.215Z,70.16
2023-08-10T09:52:56.182Z,70.46
2023-08-10T09:53:56.169Z,70.16
2023-08-10T09:54:56.186Z,70.23
2023-08-10T09:55:56.145Z,72.24
2023-08-10T09:56:56.183Z,73.03
2023-08-10T09:57:56.140Z,73.44
2023-08-10T09:58:56.114Z,73.03
2023-08-10T09:59:56.141Z,71.93
2023-08-10T10:00:56.114Z,71.73
2023-08-10T10:01:56.089Z,70.83
2023-08-10T10:02:56.118Z,71.03
2023-08-10T10:03:56.121Z,72.33
2023-08-10T10:04:56.050Z,72.30
2023-08-10T10:05:56.032Z,72.40
2023-08-10T10:06:56.049Z,72.50
2023-08-10T10:07:56.021Z,70.12
2023-08-10T10:08:56.006Z,71.30
2023-08-10T10:09:55.990Z,72.80
2023-08-10T10:10:56.001Z,72.36
2023-08-10T10:11:55.980Z,72.09
2023-08-10T10:12:55.969Z,71.26
2023-08-10T10:13:55.956Z,70.50
2023-08-10T10:14:55.947Z,70.19
2023-08-10T10:15:55.987Z,70.19
2023-08-10T10:16:55.918Z,71.50
2023-08-10T10:17:55.937Z,72.09
2023-08-10T10:18:55.914Z,71.39
2023-08-10T10:19:55.890Z,70.79
2023-08-10T10:20:55.899Z,72.60
2023-08-10T10:21:55.852Z,73.16
2023-08-10T10:22:55.959Z,71.96
2023-08-10T10:23:55.833Z,71.77
2023-08-10T10:24:55.824Z,71.96
2023-08-10T10:25:55.813Z,72.47
2023-08-10T10:26:55.827Z,70.76
2023-08-10T10:27:55.806Z,71.26
2023-08-10T10:28:55.776Z,68.65
2023-08-10T10:29:55.763Z,67.82
2023-08-10T10:30:55.826Z,67.42
2023-08-10T10:31:55.744Z,63.92
2023-08-10T10:32:55.753Z,66.05
2023-08-10T10:33:55.715Z,66.42
2023-08-10T10:34:55.730Z,67.12
2023-08-10T10:35:56.971Z,68.32
2023-08-10T10:36:55.687Z,69.93
2023-08-10T10:37:55.675Z,68.52
2023-08-10T10:38:55.720Z,67.12
2023-08-10T10:39:55.649Z,68.96
2023-08-10T10:40:55.645Z,68.76
2023-08-10T10:41:55.631Z,68.46
2023-08-10T10:42:55.623Z,66.95
2023-08-10T10:43:55.618Z,65.75
2023-08-10T10:44:55.598Z,66.68
2023-08-10T10:45:55.623Z,66.48
2023-08-10T10:46:55.601Z,66.99
2023-08-10T10:47:55.593Z,67.29
2023-08-10T10:48:55.564Z,66.28
2023-08-10T10:49:55.599Z,65.48
2023-08-10T10:50:55.935Z,64.11
2023-08-10T10:51:55.769Z,64.31
2023-08-10T10:52:55.666Z,65.91
2023-08-10T10:53:55.595Z,67.14
2023-08-10T10:55:02.715Z,67.61
2023-08-10T10:55:55.472Z,67.82
2023-08-10T10:56:55.468Z,66.52
2023-08-10T10:57:55.475Z,66.95
2023-08-10T10:58:55.459Z,68.12
2023-08-10T10:59:55.449Z,69.02
2023-08-10T11:00:55.449Z,66.24
2023-08-10T11:01:55.605Z,64.43
2023-08-10T11:02:55.414Z,65.04
2023-08-10T11:03:55.396Z,64.84
2023-08-10T11:04:55.373Z,66.95
2023-08-10T11:05:55.384Z,67.65
2023-08-10T11:06:55.400Z,69.26
2023-08-10T11:07:55.343Z,69.42
2023-08-10T11:08:55.336Z,69.22
2023-08-10T11:09:55.401Z,68.82
2023-08-10T11:10:55.310Z,70.23
2023-08-10T11:11:55.315Z,69.42
2023-08-10T11:12:56.232Z,68.72
2023-08-10T11:13:55.278Z,66.82
2023-08-10T11:14:55.278Z,68.12
2023-08-10T11:15:55.254Z,68.12
2023-08-10T11:16:57.660Z,68.12
2023-08-10T11:17:55.259Z,67.88
2023-08-10T11:18:55.235Z,69.29
2023-08-10T11:19:55.226Z,69.19
2023-08-10T11:20:55.352Z,68.79
2023-08-10T11:21:55.189Z,68.55
2023-08-10T11:22:55.193Z,67.88
2023-08-10T11:23:55.167Z,68.65
2023-08-10T11:24:55.151Z,68.05
2023-08-10T11:25:55.190Z,64.84
2023-08-10T11:26:55.128Z,65.85
2023-08-10T11:27:55.200Z,68.65
2023-08-10T11:28:55.112Z,68.73
2023-08-10T11:29:55.097Z,68.22
2023-08-10T11:30:56.331Z,68.82
2023-08-10T11:31:56.625Z,69.12
2023-08-10T11:32:55.108Z,67.19
2023-08-10T11:33:55.071Z,65.69
2023-08-10T11:34:55.072Z,68.69
2023-08-10T11:35:55.047Z,66.99
2023-08-10T11:36:55.019Z,66.25
2023-08-10T11:37:55.070Z,65.45
2023-08-10T11:38:55.029Z,63.85
2023-08-10T11:39:54.980Z,64.75
2023-08-10T11:40:55.006Z,65.75
2023-08-10T11:41:54.961Z,65.75
2023-08-10T11:42:54.950Z,68.52
2023-08-10T11:43:54.946Z,65.45
2023-08-10T11:44:54.930Z,67.46
2023-08-10T11:45:54.960Z,67.36
2023-08-10T11:46:54.907Z,66.16
2023-08-10T11:48:03.340Z,66.96
2023-08-10T11:48:55.876Z,65.95
2023-08-10T11:49:54.866Z,63.89
2023-08-10T11:50:54.856Z,66.69
2023-08-10T11:51:54.862Z,68.39
2023-08-10T11:52:54.849Z,66.89
2023-08-10T11:53:54.829Z,69.76
2023-08-10T11:54:54.832Z,67.69
2023-08-10T11:55:54.806Z,67.46
2023-08-10T11:56:54.807Z,67.86
2023-08-10T11:57:54.777Z,69.46
2023-08-10T11:58:54.800Z,67.79
2023-08-10T11:59:54.766Z,67.79
2023-08-10T12:00:54.790Z,68.59
2023-08-10T12:01:54.784Z,69.46
2023-08-10T12:02:54.787Z,68.86
2023-08-10T12:03:57.344Z,69.56
2023-08-10T12:04:54.700Z,67.66
2023-08-10T12:05:54.687Z,68.96
2023-08-10T12:06:54.690Z,69.16
2023-08-10T12:07:54.682Z,69.66
2023-08-10T12:08:54.657Z,69.82
2023-08-10T12:09:54.652Z,69.82
2023-08-10T12:10:54.670Z,69.23
2023-08-10T12:12:54.610Z,66.05
2023-08-10T12:13:54.646Z,66.55
2023-08-10T12:14:55.024Z,67.36
2023-08-10T12:15:54.616Z,65.05
2023-08-10T12:16:54.559Z,65.66
2023-08-10T12:17:54.623Z,66.16
2023-08-10T12:18:54.667Z,68.76
2023-08-10T12:19:54.530Z,70.86
2023-08-10T12:20:54.526Z,68.76
2023-08-10T12:21:54.506Z,66.75
2023-08-10T12:22:54.519Z,65.66
2023-08-10T12:23:54.572Z,67.05
2023-08-10T12:24:54.487Z,65.86
2023-08-10T12:25:54.466Z,66.86
2023-08-10T12:26:54.468Z,66.86
2023-08-10T12:27:54.504Z,68.66
2023-08-10T12:28:54.454Z,69.82
2023-08-10T12:29:54.435Z,69.12
2023-08-10T12:30:54.413Z,68.52
2023-08-10T12:31:54.466Z,69.82
2023-08-10T12:32:54.456Z,68.59
2023-08-10T12:33:54.455Z,69.19
2023-08-10T12:34:54.406Z,68.59
2023-08-10T12:35:54.364Z,67.40
2023-08-10T12:36:54.347Z,68.89
2023-08-10T12:37:54.336Z,68.59
2023-08-10T12:38:54.316Z,69.49
2023-08-10T12:39:54.325Z,68.99
2023-08-10T12:40:54.353Z,69.99
2023-08-10T12:41:54.295Z,69.89
2023-08-10T12:42:54.307Z,69.99
2023-08-10T12:43:54.318Z,69.56
2023-08-10T12:44:54.334Z,67.89
2023-08-10T12:45:54.280Z,66.79
2023-08-10T12:46:54.281Z,66.42
2023-08-10T12:47:54.271Z,68.79
2023-08-10T12:48:54.271Z,67.52
2023-08-10T12:49:54.319Z,69.23
2023-08-10T12:50:54.331Z,69.62
2023-08-10T12:51:54.341Z,71.23
2023-08-10T12:52:54.259Z,71.33
2023-08-10T12:53:54.156Z,70.19
2023-08-10T12:54:55.317Z,70.19